sensor_id;sensor_type;location;lat;lon;timestamp;pressure;altitude;pressure_sealevel;temperature;humidity
6024;BME280;3040;42.654;23.296;2023-06-10T00:00:17;93880.91;;;20.52;89.42
6024;BME280;3040;42.654;23.296;2023-06-10T00:02:44;93878.19;;;20.52;89.57
6024;BME280;3040;42.654;23.296;2023-06-10T00:05:10;93891.75;;;20.48;89.33
6024;BME280;3040;42.654;23.296;2023-06-10T00:07:37;93888.38;;;20.10;90.33
6024;BME280;3040;42.654;23.296;2023-06-10T00:10:04;93782.75;;;19.51;90.15
6024;BME280;3040;42.654;23.296;2023-06-10T00:12:32;93854.53;;;19.72;91.59
6024;BME280;3040;42.654;23.296;2023-06-10T00:15:04;93880.41;;;19.69;92.02
6024;BME280;3040;42.654;23.296;2023-06-10T00:17:31;93883.22;;;19.92;91.29
6024;BME280;3040;42.654;23.296;2023-06-10T00:19:59;93878.59;;;19.89;91.06
6024;BME280;3040;42.654;23.296;2023-06-10T00:22:25;93883.94;;;19.97;90.21
6024;BME280;3040;42.654;23.296;2023-06-10T00:24:55;93870.88;;;19.91;90.11
6024;BME280;3040;42.654;23.296;2023-06-10T00:27:22;93858.56;;;19.90;89.98
6024;BME280;3040;42.654;23.296;2023-06-10T00:29:49;93898.34;;;20.17;89.39
6024;BME280;3040;42.654;23.296;2023-06-10T00:32:17;93896.72;;;20.23;89.74
6024;BME280;3040;42.654;23.296;2023-06-10T00:34:43;93885.81;;;20.30;89.65
6024;BME280;3040;42.654;23.296;2023-06-10T00:37:10;93890.69;;;20.12;89.65
6024;BME280;3040;42.654;23.296;2023-06-10T00:39:37;93883.34;;;20.12;89.96
6024;BME280;3040;42.654;23.296;2023-06-10T00:42:04;93887.53;;;20.17;90.16
6024;BME280;3040;42.654;23.296;2023-06-10T00:44:32;93888.97;;;19.95;90.03
6024;BME280;3040;42.654;23.296;2023-06-10T00:46:59;93893.09;;;20.03;90.37
6024;BME280;3040;42.654;23.296;2023-06-10T00:49:27;93896.09;;;20.12;90.35
6024;BME280;3040;42.654;23.296;2023-06-10T00:51:54;93889.56;;;20.09;90.21
6024;BME280;3040;42.654;23.296;2023-06-10T00:54:21;93888.97;;;19.95;90.71
6024;BME280;3040;42.654;23.296;2023-06-10T00:56:49;93880.97;;;19.87;91.33
6024;BME280;3040;42.654;23.296;2023-06-10T00:59:16;93885.53;;;19.90;90.65
6024;BME280;3040;42.654;23.296;2023-06-10T01:01:45;93892.59;;;19.81;91.23
6024;BME280;3040;42.654;23.296;2023-06-10T01:04:12;93887.66;;;19.76;91.38
6024;BME280;3040;42.654;23.296;2023-06-10T01:06:47;93890.31;;;19.79;91.32
6024;BME280;3040;42.654;23.296;2023-06-10T01:09:24;93893.44;;;19.74;91.45
6024;BME280;3040;42.654;23.296;2023-06-10T01:11:59;93896.78;;;19.85;90.69
6024;BME280;3040;42.654;23.296;2023-06-10T01:14:29;93895.50;;;19.97;90.58
6024;BME280;3040;42.654;23.296;2023-06-10T01:16:57;93898.91;;;19.71;90.57
6024;BME280;3040;42.654;23.296;2023-06-10T01:19:25;93896.81;;;19.48;90.86
6024;BME280;3040;42.654;23.296;2023-06-10T01:21:55;93906.56;;;19.35;91.69
6024;BME280;3040;42.654;23.296;2023-06-10T01:24:22;93862.13;;;19.50;92.01
6024;BME280;3040;42.654;23.296;2023-06-10T01:26:50;93894.00;;;19.92;92.03
6024;BME280;3040;42.654;23.296;2023-06-10T01:29:18;93898.06;;;20.08;91.36
6024;BME280;3040;42.654;23.296;2023-06-10T01:31:49;93888.31;;;20.17;90.81
6024;BME280;3040;42.654;23.296;2023-06-10T01:34:19;93902.13;;;19.55;90.77
6024;BME280;3040;42.654;23.296;2023-06-10T01:36:48;93894.25;;;19.71;90.85
6024;BME280;3040;42.654;23.296;2023-06-10T01:39:18;93897.59;;;19.82;90.77
6024;BME280;3040;42.654;23.296;2023-06-10T01:41:47;93892.41;;;19.99;90.93
6024;BME280;3040;42.654;23.296;2023-06-10T01:44:17;93885.34;;;19.74;89.81
6024;BME280;3040;42.654;23.296;2023-06-10T01:46:44;93890.09;;;19.97;91.03
6024;BME280;3040;42.654;23.296;2023-06-10T01:49:11;93891.09;;;20.10;90.79
6024;BME280;3040;42.654;23.296;2023-06-10T01:51:38;93889.78;;;20.22;90.03
6024;BME280;3040;42.654;23.296;2023-06-10T01:54:05;93892.75;;;20.31;89.50
6024;BME280;3040;42.654;23.296;2023-06-10T01:56:34;93842.88;;;20.09;89.38
6024;BME280;3040;42.654;23.296;2023-06-10T01:59:01;93879.69;;;20.26;89.98
6024;BME280;3040;42.654;23.296;2023-06-10T02:01:28;93850.66;;;20.07;89.33
6024;BME280;3040;42.654;23.296;2023-06-10T02:03:55;93878.25;;;20.18;89.25
6024;BME280;3040;42.654;23.296;2023-06-10T02:06:22;93875.38;;;20.02;89.17
6024;BME280;3040;42.654;23.296;2023-06-10T02:08:49;93863.94;;;19.94;88.60
6024;BME280;3040;42.654;23.296;2023-06-10T02:11:15;93864.03;;;19.83;89.27
6024;BME280;3040;42.654;23.296;2023-06-10T02:13:44;93861.44;;;19.76;89.73
6024;BME280;3040;42.654;23.296;2023-06-10T02:16:10;93863.47;;;19.65;89.92
6024;BME280;3040;42.654;23.296;2023-06-10T02:18:38;93862.84;;;19.54;90.63
6024;BME280;3040;42.654;23.296;2023-06-10T02:21:06;93858.53;;;19.60;91.00
6024;BME280;3040;42.654;23.296;2023-06-10T02:23:33;93822.09;;;19.45;90.61
6024;BME280;3040;42.654;23.296;2023-06-10T02:26:00;93815.56;;;19.46;89.41
6024;BME280;3040;42.654;23.296;2023-06-10T02:28:27;93856.28;;;19.89;90.06
6024;BME280;3040;42.654;23.296;2023-06-10T02:30:55;93846.50;;;19.99;90.12
6024;BME280;3040;42.654;23.296;2023-06-10T02:33:24;93843.66;;;20.09;89.86
6024;BME280;3040;42.654;23.296;2023-06-10T02:35:51;93811.00;;;20.00;89.62
6024;BME280;3040;42.654;23.296;2023-06-10T02:38:17;93848.81;;;20.27;89.57
6024;BME280;3040;42.654;23.296;2023-06-10T02:40:45;93846.47;;;20.29;89.36
6024;BME280;3040;42.654;23.296;2023-06-10T02:43:11;93812.09;;;20.06;88.42
6024;BME280;3040;42.654;23.296;2023-06-10T02:45:38;93844.53;;;20.29;88.01
6024;BME280;3040;42.654;23.296;2023-06-10T02:48:07;93842.97;;;20.32;88.16
6024;BME280;3040;42.654;23.296;2023-06-10T02:50:33;93838.47;;;20.22;88.74
6024;BME280;3040;42.654;23.296;2023-06-10T02:53:00;93839.63;;;20.21;89.21
6024;BME280;3040;42.654;23.296;2023-06-10T02:55:27;93846.00;;;20.07;89.03
6024;BME280;3040;42.654;23.296;2023-06-10T02:57:54;93832.31;;;19.95;88.97
6024;BME280;3040;42.654;23.296;2023-06-10T03:00:21;93848.84;;;19.97;89.42
6024;BME280;3040;42.654;23.296;2023-06-10T03:02:48;93837.72;;;19.91;88.85
6024;BME280;3040;42.654;23.296;2023-06-10T03:05:16;93684.00;;;18.96;89.33
6024;BME280;3040;42.654;23.296;2023-06-10T03:07:43;93838.09;;;19.93;89.71
6024;BME280;3040;42.654;23.296;2023-06-10T03:10:11;93843.31;;;19.77;90.02
6024;BME280;3040;42.654;23.296;2023-06-10T03:12:38;93849.50;;;19.74;88.73
6024;BME280;3040;42.654;23.296;2023-06-10T03:15:06;93847.13;;;19.79;89.24
6024;BME280;3040;42.654;23.296;2023-06-10T03:17:33;93847.75;;;19.90;89.39
6024;BME280;3040;42.654;23.296;2023-06-10T03:20:00;93847.63;;;20.01;89.85
6024;BME280;3040;42.654;23.296;2023-06-10T03:22:28;93849.81;;;20.10;90.86
6024;BME280;3040;42.654;23.296;2023-06-10T03:24:54;93855.06;;;20.20;91.38
6024;BME280;3040;42.654;23.296;2023-06-10T03:27:22;93864.84;;;20.11;89.69
6024;BME280;3040;42.654;23.296;2023-06-10T03:29:49;93833.78;;;19.99;90.04
6024;BME280;3040;42.654;23.296;2023-06-10T03:32:16;93872.69;;;20.32;91.63
6024;BME280;3040;42.654;23.296;2023-06-10T03:34:43;93862.28;;;20.30;91.82
6024;BME280;3040;42.654;23.296;2023-06-10T03:37:11;93595.75;;;18.02;90.68
6024;BME280;3040;42.654;23.296;2023-06-10T03:39:39;93879.50;;;19.04;95.37
6024;BME280;3040;42.654;23.296;2023-06-10T03:42:06;93877.59;;;18.50;99.00
6024;BME280;3040;42.654;23.296;2023-06-10T03:44:33;93865.03;;;18.29;100.00
6024;BME280;3040;42.654;23.296;2023-06-10T03:47:00;93868.22;;;18.13;100.00
6024;BME280;3040;42.654;23.296;2023-06-10T03:49:27;93752.91;;;17.39;100.00
6024;BME280;3040;42.654;23.296;2023-06-10T03:51:54;93868.47;;;18.37;100.00
6024;BME280;3040;42.654;23.296;2023-06-10T03:54:21;93709.75;;;17.71;100.00
6024;BME280;3040;42.654;23.296;2023-06-10T03:56:49;93873.75;;;19.02;100.00
6024;BME280;3040;42.654;23.296;2023-06-10T03:59:16;93873.97;;;19.22;99.83
6024;BME280;3040;42.654;23.296;2023-06-10T04:01:43;93868.38;;;19.40;98.52
6024;BME280;3040;42.654;23.296;2023-06-10T04:04:13;93865.91;;;19.56;97.96
6024;BME280;3040;42.654;23.296;2023-06-10T04:06:41;93869.63;;;19.69;96.70
6024;BME280;3040;42.654;23.296;2023-06-10T04:09:09;93842.72;;;19.62;95.79
6024;BME280;3040;42.654;23.296;2023-06-10T04:11:35;93861.72;;;19.85;95.57
6024;BME280;3040;42.654;23.296;2023-06-10T04:14:04;93859.00;;;19.85;95.10
6024;BME280;3040;42.654;23.296;2023-06-10T04:16:30;93872.34;;;20.00;94.58
6024;BME280;3040;42.654;23.296;2023-06-10T04:18:58;93876.50;;;20.04;93.92
6024;BME280;3040;42.654;23.296;2023-06-10T04:21:25;93881.44;;;20.09;93.08
6024;BME280;3040;42.654;23.296;2023-06-10T04:23:52;93893.72;;;20.14;93.66
6024;BME280;3040;42.654;23.296;2023-06-10T04:26:19;93884.44;;;20.18;93.15
6024;BME280;3040;42.654;23.296;2023-06-10T04:28:47;93883.59;;;20.21;93.35
6024;BME280;3040;42.654;23.296;2023-06-10T04:31:15;93876.97;;;20.26;93.43
6024;BME280;3040;42.654;23.296;2023-06-10T04:33:42;93878.88;;;20.29;94.02
6024;BME280;3040;42.654;23.296;2023-06-10T04:36:09;93881.09;;;20.38;94.41
6024;BME280;3040;42.654;23.296;2023-06-10T04:38:35;93876.34;;;20.45;94.43
6024;BME280;3040;42.654;23.296;2023-06-10T04:41:02;93884.72;;;20.54;93.47
6024;BME280;3040;42.654;23.296;2023-06-10T04:43:29;93882.25;;;20.63;93.03
6024;BME280;3040;42.654;23.296;2023-06-10T04:45:56;93882.88;;;20.75;92.58
6024;BME280;3040;42.654;23.296;2023-06-10T04:48:24;93874.75;;;20.75;92.38
6024;BME280;3040;42.654;23.296;2023-06-10T04:50:51;93880.31;;;20.91;91.24
6024;BME280;3040;42.654;23.296;2023-06-10T04:53:18;93877.91;;;20.96;90.78
6024;BME280;3040;42.654;23.296;2023-06-10T04:55:46;93882.00;;;21.04;92.37
6024;BME280;3040;42.654;23.296;2023-06-10T04:58:13;93758.53;;;20.28;92.43
6024;BME280;3040;42.654;23.296;2023-06-10T05:00:40;93877.97;;;21.16;91.51
6024;BME280;3040;42.654;23.296;2023-06-10T05:03:07;93879.84;;;21.19;90.52
6024;BME280;3040;42.654;23.296;2023-06-10T05:05:35;93853.00;;;21.05;90.75
6024;BME280;3040;42.654;23.296;2023-06-10T05:08:02;93875.38;;;21.09;89.96
6024;BME280;3040;42.654;23.296;2023-06-10T05:10:28;93854.66;;;20.99;90.03
6024;BME280;3040;42.654;23.296;2023-06-10T05:12:57;93877.59;;;21.14;89.60
6024;BME280;3040;42.654;23.296;2023-06-10T05:15:23;93876.78;;;21.17;88.97
6024;BME280;3040;42.654;23.296;2023-06-10T05:17:50;93879.09;;;21.19;89.45
6024;BME280;3040;42.654;23.296;2023-06-10T05:20:17;93875.13;;;21.23;89.10
6024;BME280;3040;42.654;23.296;2023-06-10T05:22:46;93870.44;;;21.27;89.71
6024;BME280;3040;42.654;23.296;2023-06-10T05:25:13;93875.00;;;21.30;89.99
6024;BME280;3040;42.654;23.296;2023-06-10T05:27:40;93884.06;;;21.43;90.24
6024;BME280;3040;42.654;23.296;2023-06-10T05:30:09;93867.94;;;21.36;89.96
6024;BME280;3040;42.654;23.296;2023-06-10T05:32:36;93879.28;;;21.51;88.53
6024;BME280;3040;42.654;23.296;2023-06-10T05:35:04;93883.81;;;21.58;89.19
6024;BME280;3040;42.654;23.296;2023-06-10T05:37:33;93824.78;;;21.29;89.47
6024;BME280;3040;42.654;23.296;2023-06-10T05:40:01;93872.69;;;21.72;89.50
6024;BME280;3040;42.654;23.296;2023-06-10T05:42:29;93880.69;;;21.79;88.82
6024;BME280;3040;42.654;23.296;2023-06-10T05:44:56;93882.91;;;21.84;87.54
6024;BME280;3040;42.654;23.296;2023-06-10T05:47:23;93891.81;;;21.41;85.52
6024;BME280;3040;42.654;23.296;2023-06-10T05:49:50;93888.59;;;21.50;86.53
6024;BME280;3040;42.654;23.296;2023-06-10T05:52:17;93891.81;;;21.41;85.89
6024;BME280;3040;42.654;23.296;2023-06-10T05:54:44;93889.41;;;21.47;85.82
6024;BME280;3040;42.654;23.296;2023-06-10T05:57:12;93887.47;;;21.01;86.36
6024;BME280;3040;42.654;23.296;2023-06-10T05:59:39;93896.53;;;20.91;87.02
6024;BME280;3040;42.654;23.296;2023-06-10T06:02:06;93895.38;;;21.15;87.88
6024;BME280;3040;42.654;23.296;2023-06-10T06:04:33;93904.28;;;21.35;88.45
6024;BME280;3040;42.654;23.296;2023-06-10T06:07:00;93895.25;;;21.45;87.89
6024;BME280;3040;42.654;23.296;2023-06-10T06:09:27;93892.66;;;21.38;88.33
6024;BME280;3040;42.654;23.296;2023-06-10T06:11:54;93900.81;;;21.11;86.18
6024;BME280;3040;42.654;23.296;2023-06-10T06:14:22;93897.34;;;20.88;86.29
6024;BME280;3040;42.654;23.296;2023-06-10T06:16:49;93890.78;;;20.62;86.67
6024;BME280;3040;42.654;23.296;2023-06-10T06:19:16;93896.38;;;20.98;86.22
6024;BME280;3040;42.654;23.296;2023-06-10T06:21:43;93859.91;;;21.09;86.13
6024;BME280;3040;42.654;23.296;2023-06-10T06:24:09;93889.84;;;21.45;85.59
6024;BME280;3040;42.654;23.296;2023-06-10T06:26:36;93905.53;;;21.74;86.66
6024;BME280;3040;42.654;23.296;2023-06-10T06:29:03;93900.94;;;21.90;85.92
6024;BME280;3040;42.654;23.296;2023-06-10T06:31:31;93900.63;;;22.08;86.34
6024;BME280;3040;42.654;23.296;2023-06-10T06:33:58;93888.13;;;22.14;84.28
6024;BME280;3040;42.654;23.296;2023-06-10T06:36:25;93885.53;;;22.27;83.92
6024;BME280;3040;42.654;23.296;2023-06-10T06:38:52;93899.81;;;22.47;83.59
6024;BME280;3040;42.654;23.296;2023-06-10T06:41:19;93894.03;;;22.45;81.26
6024;BME280;3040;42.654;23.296;2023-06-10T06:43:47;93746.09;;;21.43;79.77
6024;BME280;3040;42.654;23.296;2023-06-10T06:46:14;93857.50;;;22.17;78.55
6024;BME280;3040;42.654;23.296;2023-06-10T06:48:42;93896.09;;;21.82;80.59
6024;BME280;3040;42.654;23.296;2023-06-10T06:51:09;93892.81;;;21.71;82.03
6024;BME280;3040;42.654;23.296;2023-06-10T06:53:36;93880.63;;;22.02;83.56
6024;BME280;3040;42.654;23.296;2023-06-10T06:56:09;93891.03;;;22.23;82.43
6024;BME280;3040;42.654;23.296;2023-06-10T06:58:36;93883.53;;;22.11;78.47
6024;BME280;3040;42.654;23.296;2023-06-10T07:01:03;93788.09;;;20.62;80.91
6024;BME280;3040;42.654;23.296;2023-06-10T07:03:29;93881.22;;;20.81;82.99
6024;BME280;3040;42.654;23.296;2023-06-10T07:05:57;93864.03;;;20.44;82.68
6024;BME280;3040;42.654;23.296;2023-06-10T07:08:24;93886.28;;;20.79;84.62
6024;BME280;3040;42.654;23.296;2023-06-10T07:10:51;93847.88;;;20.91;81.83
6024;BME280;3040;42.654;23.296;2023-06-10T07:13:18;93880.09;;;21.48;81.95
6024;BME280;3040;42.654;23.296;2023-06-10T07:15:46;93885.38;;;21.98;82.68
6024;BME280;3040;42.654;23.296;2023-06-10T07:18:14;93869.53;;;22.32;79.87
6024;BME280;3040;42.654;23.296;2023-06-10T07:20:41;93878.16;;;22.80;80.11
6024;BME280;3040;42.654;23.296;2023-06-10T07:23:09;93872.66;;;23.16;76.62
6024;BME280;3040;42.654;23.296;2023-06-10T07:25:36;93876.88;;;23.49;75.73
6024;BME280;3040;42.654;23.296;2023-06-10T07:28:03;93868.44;;;23.60;72.58
6024;BME280;3040;42.654;23.296;2023-06-10T07:30:30;93870.13;;;23.82;71.56
6024;BME280;3040;42.654;23.296;2023-06-10T07:32:57;93877.06;;;24.12;71.68
6024;BME280;3040;42.654;23.296;2023-06-10T07:35:24;93883.44;;;24.22;69.43
6024;BME280;3040;42.654;23.296;2023-06-10T07:37:51;93876.50;;;24.46;67.74
6024;BME280;3040;42.654;23.296;2023-06-10T07:40:19;93876.25;;;24.66;63.83
6024;BME280;3040;42.654;23.296;2023-06-10T07:42:46;93757.00;;;24.05;64.75
6024;BME280;3040;42.654;23.296;2023-06-10T07:45:12;93778.09;;;24.26;62.85
6024;BME280;3040;42.654;23.296;2023-06-10T07:47:39;93878.75;;;25.11;65.05
6024;BME280;3040;42.654;23.296;2023-06-10T07:50:06;93865.72;;;25.06;64.11
6024;BME280;3040;42.654;23.296;2023-06-10T07:52:33;93871.38;;;24.86;61.39
6024;BME280;3040;42.654;23.296;2023-06-10T07:55:00;93872.25;;;24.96;62.21
6024;BME280;3040;42.654;23.296;2023-06-10T07:57:28;93882.31;;;25.21;64.12
6024;BME280;3040;42.654;23.296;2023-06-10T07:59:57;93879.59;;;25.33;62.75
6024;BME280;3040;42.654;23.296;2023-06-10T08:02:25;93868.50;;;25.15;60.91
6024;BME280;3040;42.654;23.296;2023-06-10T08:04:52;93875.28;;;25.58;61.16
6024;BME280;3040;42.654;23.296;2023-06-10T08:07:19;93882.16;;;25.49;57.74
6024;BME280;3040;42.654;23.296;2023-06-10T08:09:45;93861.16;;;24.52;59.48
6024;BME280;3040;42.654;23.296;2023-06-10T08:12:12;93870.50;;;25.02;57.63
6024;BME280;3040;42.654;23.296;2023-06-10T08:14:40;93867.25;;;24.82;58.85
6024;BME280;3040;42.654;23.296;2023-06-10T08:17:07;93868.56;;;24.90;57.22
6024;BME280;3040;42.654;23.296;2023-06-10T08:19:34;93857.22;;;24.79;58.12
6024;BME280;3040;42.654;23.296;2023-06-10T08:22:01;93860.84;;;24.50;59.95
6024;BME280;3040;42.654;23.296;2023-06-10T08:24:27;93850.59;;;24.92;57.03
6024;BME280;3040;42.654;23.296;2023-06-10T08:26:54;93864.00;;;25.34;58.44
6024;BME280;3040;42.654;23.296;2023-06-10T08:29:22;93851.72;;;25.64;56.71
6024;BME280;3040;42.654;23.296;2023-06-10T08:31:50;93852.81;;;25.88;56.64
6024;BME280;3040;42.654;23.296;2023-06-10T08:34:18;93849.94;;;26.13;56.60
6024;BME280;3040;42.654;23.296;2023-06-10T08:36:45;93849.53;;;26.46;58.14
6024;BME280;3040;42.654;23.296;2023-06-10T08:39:12;93843.69;;;26.65;52.27
6024;BME280;3040;42.654;23.296;2023-06-10T08:41:43;93842.31;;;26.52;50.52
6024;BME280;3040;42.654;23.296;2023-06-10T08:44:14;93841.41;;;25.80;50.88
6024;BME280;3040;42.654;23.296;2023-06-10T08:46:45;93846.03;;;25.36;51.49
6024;BME280;3040;42.654;23.296;2023-06-10T08:49:17;93836.53;;;25.19;52.82
6024;BME280;3040;42.654;23.296;2023-06-10T08:51:47;93829.06;;;25.32;54.80
6024;BME280;3040;42.654;23.296;2023-06-10T08:54:20;93827.47;;;25.57;56.73
6024;BME280;3040;42.654;23.296;2023-06-10T08:56:49;93826.75;;;26.09;55.93
6024;BME280;3040;42.654;23.296;2023-06-10T08:59:17;93828.59;;;26.33;50.23
6024;BME280;3040;42.654;23.296;2023-06-10T09:01:44;93823.31;;;26.17;49.88
6024;BME280;3040;42.654;23.296;2023-06-10T09:04:12;93825.59;;;25.66;52.56
6024;BME280;3040;42.654;23.296;2023-06-10T09:06:40;93816.00;;;25.83;52.26
6024;BME280;3040;42.654;23.296;2023-06-10T09:09:07;93820.66;;;26.26;52.08
6024;BME280;3040;42.654;23.296;2023-06-10T09:11:34;93808.69;;;26.64;54.24
6024;BME280;3040;42.654;23.296;2023-06-10T09:14:01;93815.72;;;26.83;49.36
6024;BME280;3040;42.654;23.296;2023-06-10T09:16:28;93715.03;;;26.67;49.89
6024;BME280;3040;42.654;23.296;2023-06-10T09:18:55;93816.13;;;27.40;47.54
6024;BME280;3040;42.654;23.296;2023-06-10T09:21:22;93810.03;;;27.27;47.36
6024;BME280;3040;42.654;23.296;2023-06-10T09:23:50;93809.19;;;27.66;48.51
6024;BME280;3040;42.654;23.296;2023-06-10T09:26:18;93799.53;;;28.07;48.85
6024;BME280;3040;42.654;23.296;2023-06-10T09:28:48;93808.16;;;28.24;44.85
6024;BME280;3040;42.654;23.296;2023-06-10T09:31:15;93804.31;;;27.70;44.85
6024;BME280;3040;42.654;23.296;2023-06-10T09:33:44;93808.84;;;27.82;46.23
6024;BME280;3040;42.654;23.296;2023-06-10T09:36:11;93800.47;;;28.13;44.85
6024;BME280;3040;42.654;23.296;2023-06-10T09:38:51;93798.44;;;28.65;46.25
6024;BME280;3040;42.654;23.296;2023-06-10T09:41:17;93800.53;;;29.03;42.72
6024;BME280;3040;42.654;23.296;2023-06-10T09:43:45;93810.97;;;29.13;42.55
6024;BME280;3040;42.654;23.296;2023-06-10T09:46:15;93686.47;;;28.52;41.69
6024;BME280;3040;42.654;23.296;2023-06-10T09:48:43;93789.06;;;28.15;42.33
6024;BME280;3040;42.654;23.296;2023-06-10T09:51:12;93788.75;;;28.04;43.42
6024;BME280;3040;42.654;23.296;2023-06-10T09:53:39;93793.28;;;28.25;43.13
6024;BME280;3040;42.654;23.296;2023-06-10T09:56:08;93784.63;;;28.59;43.57
6024;BME280;3040;42.654;23.296;2023-06-10T09:58:36;93789.19;;;28.62;43.48
6024;BME280;3040;42.654;23.296;2023-06-10T10:01:06;93762.19;;;29.03;44.75
6024;BME280;3040;42.654;23.296;2023-06-10T10:03:43;93784.66;;;29.54;43.94
6024;BME280;3040;42.654;23.296;2023-06-10T10:06:11;93755.56;;;29.86;41.49
6024;BME280;3040;42.654;23.296;2023-06-10T10:08:38;93785.56;;;30.49;40.87
6024;BME280;3040;42.654;23.296;2023-06-10T10:11:05;93776.94;;;29.82;38.20
6024;BME280;3040;42.654;23.296;2023-06-10T10:13:34;93767.63;;;29.50;41.11
6024;BME280;3040;42.654;23.296;2023-06-10T10:16:04;93753.28;;;29.85;40.51
6024;BME280;3040;42.654;23.296;2023-06-10T10:18:35;93768.63;;;30.21;38.44
6024;BME280;3040;42.654;23.296;2023-06-10T10:21:11;93773.38;;;29.91;39.42
6024;BME280;3040;42.654;23.296;2023-06-10T10:23:51;93746.47;;;28.89;39.73
6024;BME280;3040;42.654;23.296;2023-06-10T10:26:21;93756.78;;;28.94;42.55
6024;BME280;3040;42.654;23.296;2023-06-10T10:28:58;93738.63;;;29.20;41.00
6024;BME280;3040;42.654;23.296;2023-06-10T10:31:27;93743.44;;;29.34;42.61
6024;BME280;3040;42.654;23.296;2023-06-10T10:33:58;93755.34;;;29.61;40.88
6024;BME280;3040;42.654;23.296;2023-06-10T10:36:26;93616.13;;;28.67;41.43
6024;BME280;3040;42.654;23.296;2023-06-10T10:38:54;93760.56;;;29.59;39.44
6024;BME280;3040;42.654;23.296;2023-06-10T10:41:21;93762.47;;;29.82;40.50
6024;BME280;3040;42.654;23.296;2023-06-10T10:43:51;93757.66;;;30.36;40.20
6024;BME280;3040;42.654;23.296;2023-06-10T10:46:18;93756.22;;;30.55;38.57
6024;BME280;3040;42.654;23.296;2023-06-10T10:48:52;93754.75;;;30.74;38.21
6024;BME280;3040;42.654;23.296;2023-06-10T10:51:20;93710.31;;;30.41;36.00
6024;BME280;3040;42.654;23.296;2023-06-10T10:54:10;93745.91;;;29.62;38.00
6024;BME280;3040;42.654;23.296;2023-06-10T10:56:38;93736.88;;;30.00;39.72
6024;BME280;3040;42.654;23.296;2023-06-10T10:59:06;93720.81;;;30.07;38.83
6024;BME280;3040;42.654;23.296;2023-06-10T11:01:40;93644.03;;;29.63;38.76
6024;BME280;3040;42.654;23.296;2023-06-10T11:04:07;93739.25;;;29.92;38.78
6024;BME280;3040;42.654;23.296;2023-06-10T11:06:35;93714.75;;;29.59;38.26
6024;BME280;3040;42.654;23.296;2023-06-10T11:09:25;93729.38;;;29.41;39.79
6024;BME280;3040;42.654;23.296;2023-06-10T11:11:52;93708.09;;;29.36;38.33
6024;BME280;3040;42.654;23.296;2023-06-10T11:14:26;93681.19;;;29.49;36.52
6024;BME280;3040;42.654;23.296;2023-06-10T11:16:56;93696.41;;;29.95;35.74
6024;BME280;3040;42.654;23.296;2023-06-10T11:19:33;93696.72;;;30.31;35.44
6024;BME280;3040;42.654;23.296;2023-06-10T11:22:02;93711.22;;;30.32;35.63
6024;BME280;3040;42.654;23.296;2023-06-10T11:24:29;93715.13;;;29.96;37.26
6024;BME280;3040;42.654;23.296;2023-06-10T11:27:17;93708.13;;;29.80;36.09
6024;BME280;3040;42.654;23.296;2023-06-10T11:30:18;93704.91;;;29.82;37.92
6024;BME280;3040;42.654;23.296;2023-06-10T11:32:50;93706.41;;;30.12;41.01
6024;BME280;3040;42.654;23.296;2023-06-10T11:35:18;93696.59;;;30.41;38.64
6024;BME280;3040;42.654;23.296;2023-06-10T11:37:46;93695.00;;;30.49;36.90
6024;BME280;3040;42.654;23.296;2023-06-10T11:40:13;93698.59;;;30.55;36.04
6024;BME280;3040;42.654;23.296;2023-06-10T11:42:40;93584.47;;;29.93;36.17
6024;BME280;3040;42.654;23.296;2023-06-10T11:45:14;93696.00;;;30.86;37.74
6024;BME280;3040;42.654;23.296;2023-06-10T11:47:55;93669.97;;;31.02;38.34
6024;BME280;3040;42.654;23.296;2023-06-10T11:50:28;93673.88;;;31.16;37.42
6024;BME280;3040;42.654;23.296;2023-06-10T11:52:55;93683.72;;;31.74;37.38
6024;BME280;3040;42.654;23.296;2023-06-10T11:55:23;93676.00;;;32.09;34.56
6024;BME280;3040;42.654;23.296;2023-06-10T11:57:50;93680.38;;;32.21;33.55
6024;BME280;3040;42.654;23.296;2023-06-10T12:00:24;93554.19;;;31.09;34.96
6024;BME280;3040;42.654;23.296;2023-06-10T12:02:57;93691.50;;;31.75;35.21
6024;BME280;3040;42.654;23.296;2023-06-10T12:05:24;93682.97;;;31.73;36.27
6024;BME280;3040;42.654;23.296;2023-06-10T12:08:08;93686.84;;;31.61;34.41
6024;BME280;3040;42.654;23.296;2023-06-10T12:10:39;93679.28;;;31.56;36.88
6024;BME280;3040;42.654;23.296;2023-06-10T12:13:06;93632.97;;;30.97;36.69
6024;BME280;3040;42.654;23.296;2023-06-10T12:15:35;93691.19;;;31.22;37.56
6024;BME280;3040;42.654;23.296;2023-06-10T12:18:02;93681.31;;;31.09;38.39
6024;BME280;3040;42.654;23.296;2023-06-10T12:20:30;93658.28;;;30.87;38.59
6024;BME280;3040;42.654;23.296;2023-06-10T12:22:59;93678.66;;;31.00;37.79
6024;BME280;3040;42.654;23.296;2023-06-10T12:25:27;93678.13;;;30.56;37.87
6024;BME280;3040;42.654;23.296;2023-06-10T12:27:56;93674.56;;;30.50;38.93
6024;BME280;3040;42.654;23.296;2023-06-10T12:30:23;93561.03;;;29.77;38.60
6024;BME280;3040;42.654;23.296;2023-06-10T12:32:53;93668.09;;;30.53;37.75
6024;BME280;3040;42.654;23.296;2023-06-10T12:35:21;93670.00;;;30.47;36.51
6024;BME280;3040;42.654;23.296;2023-06-10T12:37:56;93666.63;;;30.37;38.95
6024;BME280;3040;42.654;23.296;2023-06-10T12:40:28;93633.19;;;30.18;39.35
6024;BME280;3040;42.654;23.296;2023-06-10T12:42:56;93662.91;;;30.05;37.39
6024;BME280;3040;42.654;23.296;2023-06-10T12:45:29;93658.13;;;29.71;36.31
6024;BME280;3040;42.654;23.296;2023-06-10T12:48:08;93658.84;;;29.86;39.55
6024;BME280;3040;42.654;23.296;2023-06-10T12:50:35;93659.91;;;29.88;38.54
6024;BME280;3040;42.654;23.296;2023-06-10T12:53:04;93661.41;;;29.89;37.28
6024;BME280;3040;42.654;23.296;2023-06-10T12:55:31;93655.53;;;29.97;37.81
6024;BME280;3040;42.654;23.296;2023-06-10T12:57:59;93671.03;;;30.14;37.98
6024;BME280;3040;42.654;23.296;2023-06-10T13:00:27;93671.81;;;30.00;38.88
6024;BME280;3040;42.654;23.296;2023-06-10T13:02:55;93668.03;;;29.98;38.11
6024;BME280;3040;42.654;23.296;2023-06-10T13:05:24;93672.00;;;29.82;33.83
6024;BME280;3040;42.654;23.296;2023-06-10T13:07:50;93662.19;;;29.61;37.59
6024;BME280;3040;42.654;23.296;2023-06-10T13:10:17;93667.47;;;29.49;39.95
6024;BME280;3040;42.654;23.296;2023-06-10T13:12:44;93675.59;;;29.44;37.71
6024;BME280;3040;42.654;23.296;2023-06-10T13:15:12;93663.75;;;29.23;36.89